Higginsville, New York
Current Conditions -  °F | °C
As of 6:26 AM on Thursday 18 Dec 2014 (Local Time) from KRME Reporting Station
Light Snow Light Snow  
Wind Chill: 20°   Ceiling: 1500
Heat Index: 31°   Visibility: 1.7mi
Dew Point: 28°   Wind: 16mph
Humidity: 89%   Direction: 280°W
Pressure: 29.95"   Gusts: NA
Location:  43.1683°N, 75.6691°W
Report Text: KRME 181126Z AUTO 28014KT 1 3/4SM -SN BR BKN015 BKN019 OVC028 M01/M02 A2995 RMK AO2 SNB06 P0000 T10061022
Loading
Personal Weather Stations






























Interactive Weather Map New forecast layout! Learn more

10-Day Weather Forecast

Advertisements
Track Severe Weather on mobile